createdAt,value
2023-09-27T00:00:48.294Z,98.58
2023-09-27T00:03:14.891Z,98.67
2023-09-27T00:05:41.887Z,98.68
2023-09-27T00:08:09.071Z,98.80
2023-09-27T00:10:35.999Z,98.77
2023-09-27T00:13:03.699Z,98.90
2023-09-27T00:15:31.055Z,98.99
2023-09-27T00:17:57.622Z,98.98
2023-09-27T00:20:24.252Z,99.00
2023-09-27T00:22:50.825Z,98.85
2023-09-27T00:25:17.487Z,98.89
2023-09-27T00:27:44.134Z,98.79
2023-09-27T00:30:15.129Z,98.94
2023-09-27T00:32:43.343Z,98.97
2023-09-27T00:35:13.463Z,99.01
2023-09-27T00:37:40.144Z,99.02
2023-09-27T00:40:11.877Z,98.92
2023-09-27T00:42:38.475Z,98.88
2023-09-27T00:45:06.084Z,98.93
2023-09-27T00:47:33.795Z,98.95
2023-09-27T00:50:00.594Z,98.98
2023-09-27T00:52:27.436Z,98.93
2023-09-27T00:54:54.447Z,98.93
2023-09-27T00:57:21.756Z,98.84
2023-09-27T00:59:48.501Z,98.95
2023-09-27T01:02:15.465Z,98.97
2023-09-27T01:04:42.189Z,98.94
2023-09-27T01:07:09.230Z,98.93
2023-09-27T01:09:36.265Z,99.04
2023-09-27T01:12:05.441Z,99.17
2023-09-27T01:14:32.111Z,99.27
2023-09-27T01:17:11.355Z,99.32
2023-09-27T01:19:39.732Z,99.41
2023-09-27T01:22:06.304Z,99.31
2023-09-27T01:24:37.067Z,99.29
2023-09-27T01:27:06.666Z,99.31
2023-09-27T01:29:34.369Z,99.20
2023-09-27T01:32:01.106Z,99.25
2023-09-27T01:34:27.762Z,99.31
2023-09-27T01:36:55.514Z,99.27
2023-09-27T01:39:22.333Z,99.21
2023-09-27T01:41:48.926Z,99.39
2023-09-27T01:44:15.595Z,99.49
2023-09-27T01:46:42.263Z,99.27
2023-09-27T01:49:08.815Z,99.46
2023-09-27T01:51:35.609Z,99.34
2023-09-27T01:54:03.550Z,99.46
2023-09-27T01:56:30.223Z,99.36
2023-09-27T01:58:56.980Z,99.40
2023-09-27T02:01:23.598Z,99.57
2023-09-27T02:03:50.299Z,99.51
2023-09-27T02:06:16.942Z,99.58
2023-09-27T02:08:43.680Z,99.51
2023-09-27T02:11:10.786Z,99.52
2023-09-27T02:13:37.346Z,99.49
2023-09-27T02:16:04.012Z,99.57
2023-09-27T02:18:30.637Z,99.66
2023-09-27T02:20:57.169Z,99.72
2023-09-27T02:23:23.893Z,99.70
2023-09-27T02:25:59.991Z,99.75
2023-09-27T02:28:26.660Z,99.75
2023-09-27T02:30:53.187Z,99.74
2023-09-27T02:33:21.457Z,99.87
2023-09-27T02:35:47.960Z,99.93
2023-09-27T02:38:15.241Z,99.93
2023-09-27T02:40:43.300Z,99.99
2023-09-27T02:43:09.849Z,99.95
2023-09-27T02:45:36.452Z,99.99
2023-09-27T02:48:03.341Z,99.99
2023-09-27T02:50:30.081Z,99.99
2023-09-27T02:52:56.773Z,99.99
2023-09-27T02:55:23.414Z,99.99
2023-09-27T02:57:55.013Z,99.99
2023-09-27T03:00:22.637Z,99.99
2023-09-27T03:02:49.368Z,99.99
2023-09-27T03:05:16.370Z,99.99
2023-09-27T03:07:46.261Z,99.99
2023-09-27T03:10:13.216Z,99.99
2023-09-27T03:12:41.034Z,99.99
2023-09-27T03:15:13.838Z,99.99
2023-09-27T03:17:42.092Z,99.99
2023-09-27T03:20:17.306Z,99.99
2023-09-27T03:22:44.826Z,99.99
2023-09-27T03:25:11.540Z,99.99
2023-09-27T03:27:38.356Z,99.99
2023-09-27T03:30:08.497Z,99.99
2023-09-27T03:32:35.277Z,99.99
2023-09-27T03:35:01.957Z,99.99
2023-09-27T03:37:28.538Z,99.99
2023-09-27T03:39:56.932Z,99.99
2023-09-27T03:42:23.834Z,99.99
2023-09-27T03:44:51.132Z,99.99
2023-09-27T03:47:18.011Z,99.99
2023-09-27T03:49:44.780Z,99.99
2023-09-27T03:52:11.402Z,99.99
2023-09-27T03:54:38.063Z,99.99
2023-09-27T03:57:05.135Z,99.99
2023-09-27T03:59:31.697Z,99.99
2023-09-27T04:01:58.369Z,99.99
2023-09-27T04:04:25.517Z,99.99
2023-09-27T04:06:52.754Z,99.99
2023-09-27T04:09:19.318Z,99.99
2023-09-27T04:11:45.868Z,99.99
2023-09-27T04:14:12.760Z,99.99
2023-09-27T04:16:39.502Z,99.99
2023-09-27T04:19:06.134Z,99.99
2023-09-27T04:21:32.681Z,99.99
2023-09-27T04:24:00.768Z,99.99
2023-09-27T04:26:28.171Z,99.99
2023-09-27T04:28:55.278Z,99.99
2023-09-27T04:31:22.163Z,99.99
2023-09-27T04:33:49.183Z,99.99
2023-09-27T04:36:19.299Z,99.99
2023-09-27T04:38:46.810Z,99.99
2023-09-27T04:41:18.069Z,99.99
2023-09-27T04:43:45.923Z,99.99
2023-09-27T04:46:17.552Z,99.99
2023-09-27T04:48:47.329Z,99.99
2023-09-27T04:51:13.924Z,99.99
2023-09-27T04:53:40.703Z,99.99
2023-09-27T04:56:08.669Z,99.99
2023-09-27T04:58:36.997Z,99.99
2023-09-27T05:01:07.033Z,99.99
2023-09-27T05:03:33.961Z,99.99
2023-09-27T05:06:00.562Z,99.99
2023-09-27T05:08:30.552Z,99.99
2023-09-27T05:10:57.485Z,99.99
2023-09-27T05:13:24.480Z,99.99
2023-09-27T05:15:54.267Z,99.99
2023-09-27T05:18:23.911Z,99.99
2023-09-27T05:20:50.718Z,99.99
2023-09-27T05:23:17.596Z,99.99
2023-09-27T05:25:45.337Z,99.99
2023-09-27T05:28:12.052Z,99.99
2023-09-27T05:30:38.640Z,99.99
2023-09-27T05:33:09.007Z,99.99
2023-09-27T05:35:35.724Z,99.99
2023-09-27T05:38:02.385Z,99.99
2023-09-27T05:40:29.172Z,99.99
2023-09-27T05:42:56.905Z,99.99
2023-09-27T05:45:24.143Z,99.99
2023-09-27T05:47:50.832Z,99.99
2023-09-27T05:50:17.561Z,99.99
2023-09-27T05:52:47.574Z,99.99
2023-09-27T05:55:16.659Z,99.99
2023-09-27T05:57:43.700Z,99.99
2023-09-27T06:00:20.526Z,99.99
2023-09-27T06:02:48.490Z,99.99
2023-09-27T06:05:15.276Z,99.99
2023-09-27T06:07:41.926Z,99.99
2023-09-27T06:10:10.001Z,99.99
2023-09-27T06:12:36.552Z,99.99
2023-09-27T06:15:03.393Z,99.99
2023-09-27T06:17:30.241Z,99.99
2023-09-27T06:19:57.243Z,99.99
2023-09-27T06:22:24.145Z,99.99
2023-09-27T06:24:50.909Z,99.99
2023-09-27T06:27:18.021Z,99.99
2023-09-27T06:29:44.785Z,99.99
2023-09-27T06:32:11.645Z,99.99
2023-09-27T06:34:38.309Z,99.99
2023-09-27T06:37:04.894Z,99.99
2023-09-27T06:39:32.133Z,99.99
2023-09-27T06:41:59.372Z,99.99
2023-09-27T06:44:26.058Z,99.99
2023-09-27T06:46:53.470Z,99.99
2023-09-27T06:49:20.400Z,99.99
2023-09-27T06:51:47.015Z,99.99
2023-09-27T06:54:13.672Z,99.99
2023-09-27T06:56:41.720Z,99.99
2023-09-27T06:59:08.982Z,99.99
2023-09-27T07:01:35.948Z,99.99
2023-09-27T07:04:04.986Z,99.99
2023-09-27T07:06:31.718Z,99.99
2023-09-27T07:08:59.129Z,99.99
2023-09-27T07:11:26.157Z,99.85
2023-09-27T07:13:53.136Z,99.44
2023-09-27T07:16:28.156Z,98.80
2023-09-27T07:18:57.443Z,97.08
2023-09-27T07:21:26.099Z,94.97
2023-09-27T07:23:53.529Z,91.10
2023-09-27T07:26:20.885Z,89.82
2023-09-27T07:28:47.593Z,89.30
2023-09-27T07:31:18.304Z,88.32
2023-09-27T07:33:46.419Z,84.04
2023-09-27T07:36:13.263Z,79.19
2023-09-27T07:38:40.907Z,74.46
2023-09-27T07:41:10.132Z,70.85
2023-09-27T07:43:37.424Z,72.10
2023-09-27T07:46:07.853Z,71.45
2023-09-27T07:48:39.181Z,73.85
2023-09-27T07:51:13.301Z,72.57
2023-09-27T07:53:40.730Z,72.97
2023-09-27T07:56:10.642Z,74.22
2023-09-27T07:58:38.365Z,76.84
2023-09-27T08:01:05.961Z,74.47
2023-09-27T08:03:32.959Z,73.56
2023-09-27T08:05:59.864Z,69.70
2023-09-27T08:08:26.628Z,68.20
2023-09-27T08:10:53.987Z,66.42
2023-09-27T08:13:20.785Z,64.18
2023-09-27T08:15:50.389Z,61.97
2023-09-27T08:18:17.894Z,59.25
2023-09-27T08:20:44.782Z,57.70
2023-09-27T08:23:12.215Z,56.25
2023-09-27T08:25:39.421Z,55.04
2023-09-27T08:28:07.674Z,56.02
2023-09-27T08:30:34.752Z,53.92
2023-09-27T08:33:02.239Z,53.17
2023-09-27T08:35:29.591Z,50.11
2023-09-27T08:37:56.152Z,49.80
2023-09-27T08:40:22.912Z,49.26
2023-09-27T08:42:53.223Z,51.09
2023-09-27T08:45:20.802Z,52.60
2023-09-27T08:47:47.667Z,51.92
2023-09-27T08:50:17.434Z,48.27
2023-09-27T08:52:48.895Z,48.88
2023-09-27T08:55:17.182Z,49.49
2023-09-27T08:57:47.305Z,47.72
2023-09-27T09:00:21.154Z,47.09
2023-09-27T09:02:58.013Z,46.23
2023-09-27T09:05:27.578Z,44.56
2023-09-27T09:07:56.823Z,45.49
2023-09-27T09:10:26.462Z,43.91
2023-09-27T09:12:53.346Z,42.68
2023-09-27T09:15:30.793Z,44.17
2023-09-27T09:18:00.536Z,43.71
2023-09-27T09:20:34.272Z,45.72
2023-09-27T09:23:13.599Z,44.04
2023-09-27T09:25:45.100Z,41.11
2023-09-27T09:28:14.531Z,40.13
2023-09-27T09:30:41.949Z,41.11
2023-09-27T09:33:17.918Z,39.75
2023-09-27T09:35:44.804Z,40.85
2023-09-27T09:38:11.788Z,42.08
2023-09-27T09:41:01.994Z,40.81
2023-09-27T09:43:34.759Z,39.99
2023-09-27T09:46:04.865Z,38.71
2023-09-27T09:48:34.500Z,40.33
2023-09-27T09:51:08.849Z,38.50
2023-09-27T09:53:39.911Z,38.02
2023-09-27T09:58:48.293Z,37.94
2023-09-27T10:01:21.067Z,37.26
2023-09-27T10:03:50.985Z,38.14
2023-09-27T10:06:26.403Z,40.34
2023-09-27T10:09:02.243Z,38.85
2023-09-27T10:11:30.930Z,39.74
2023-09-27T10:13:58.249Z,37.56
2023-09-27T10:16:25.641Z,38.02
2023-09-27T10:18:55.268Z,40.79
2023-09-27T10:21:21.975Z,38.90
2023-09-27T10:23:48.994Z,39.00
2023-09-27T10:26:27.609Z,37.80
2023-09-27T10:29:11.657Z,42.66
2023-09-27T10:31:58.371Z,41.87
2023-09-27T10:34:31.522Z,44.85
2023-09-27T10:37:15.027Z,48.13
2023-09-27T10:40:20.843Z,53.02
2023-09-27T10:42:48.234Z,51.48
2023-09-27T10:45:16.156Z,49.85
2023-09-27T10:47:42.794Z,50.96
2023-09-27T10:50:11.672Z,50.09
2023-09-27T10:52:39.966Z,48.71
2023-09-27T10:55:14.193Z,48.62
2023-09-27T10:57:42.735Z,49.67
2023-09-27T11:00:13.079Z,49.14
2023-09-27T11:02:40.121Z,50.59
2023-09-27T11:05:08.220Z,46.68
2023-09-27T11:07:49.511Z,46.40
2023-09-27T11:10:33.141Z,41.69
2023-09-27T11:13:11.164Z,40.71
2023-09-27T11:15:39.366Z,41.93
2023-09-27T11:18:07.429Z,40.34
2023-09-27T11:20:34.416Z,39.50
2023-09-27T11:23:02.996Z,39.86
2023-09-27T11:25:34.453Z,39.46
2023-09-27T11:28:01.110Z,38.89
2023-09-27T11:30:31.640Z,41.39
2023-09-27T11:33:06.553Z,38.85
2023-09-27T11:35:33.475Z,38.17
2023-09-27T11:38:13.990Z,38.46
2023-09-27T11:40:44.424Z,37.79
2023-09-27T11:43:13.258Z,35.75
2023-09-27T11:45:47.392Z,37.62
2023-09-27T11:48:14.985Z,37.16
2023-09-27T11:50:42.072Z,37.34
2023-09-27T11:53:09.056Z,38.13
2023-09-27T11:55:36.605Z,39.27
2023-09-27T11:58:03.267Z,39.01
2023-09-27T12:00:30.162Z,42.57
2023-09-27T12:02:58.402Z,40.44
2023-09-27T12:05:26.178Z,40.84
2023-09-27T12:07:53.849Z,38.16
2023-09-27T12:10:20.597Z,39.03
2023-09-27T12:12:47.278Z,37.89
2023-09-27T12:15:13.893Z,37.60
2023-09-27T12:17:40.763Z,38.73
2023-09-27T12:20:15.737Z,38.50
2023-09-27T12:22:49.919Z,37.04
2023-09-27T12:25:16.476Z,36.88
2023-09-27T12:27:42.949Z,38.11
2023-09-27T12:30:10.023Z,40.97
2023-09-27T12:32:36.633Z,38.79
2023-09-27T12:35:04.168Z,41.38
2023-09-27T12:37:30.954Z,40.62
2023-09-27T12:39:57.638Z,38.16
2023-09-27T12:42:24.621Z,40.26
2023-09-27T12:44:51.191Z,37.77
2023-09-27T12:47:18.811Z,37.08
2023-09-27T12:49:45.409Z,37.79
2023-09-27T12:52:11.949Z,37.36
2023-09-27T12:54:38.544Z,38.89
2023-09-27T12:57:05.077Z,38.87
2023-09-27T12:59:31.699Z,38.74
2023-09-27T13:01:58.417Z,42.21
2023-09-27T13:04:25.142Z,39.96
2023-09-27T13:06:52.623Z,37.94
2023-09-27T13:09:19.219Z,40.09
2023-09-27T13:11:45.879Z,41.43
2023-09-27T13:14:12.754Z,40.67
2023-09-27T13:16:39.288Z,41.72
2023-09-27T13:19:06.332Z,41.95
2023-09-27T13:21:32.892Z,42.15
2023-09-27T13:23:59.409Z,43.35
2023-09-27T13:26:27.257Z,46.52
2023-09-27T13:28:54.144Z,46.69
2023-09-27T13:31:20.942Z,45.03
2023-09-27T13:33:58.950Z,46.31
2023-09-27T13:36:38.094Z,48.99
2023-09-27T13:39:06.868Z,48.33
2023-09-27T13:41:43.794Z,45.15
2023-09-27T13:44:11.942Z,47.46
2023-09-27T13:46:38.790Z,45.61
2023-09-27T13:49:05.933Z,45.89
2023-09-27T13:51:35.943Z,46.42
2023-09-27T13:54:06.376Z,47.77
2023-09-27T13:56:33.499Z,47.27
2023-09-27T13:59:00.478Z,48.34
2023-09-27T14:01:28.148Z,49.46
2023-09-27T14:03:54.805Z,48.31
2023-09-27T14:06:21.617Z,47.52
2023-09-27T14:08:51.002Z,49.30
2023-09-27T14:11:18.746Z,49.95
2023-09-27T14:13:49.188Z,51.32
2023-09-27T14:16:19.186Z,49.45
2023-09-27T14:18:46.209Z,51.92
2023-09-27T14:21:14.399Z,48.26
2023-09-27T14:23:43.323Z,46.58
2023-09-27T14:26:10.386Z,45.81
2023-09-27T14:28:37.023Z,47.97
2023-09-27T14:31:03.672Z,48.56
2023-09-27T14:33:30.305Z,48.78
2023-09-27T14:35:57.666Z,48.49
2023-09-27T14:38:24.324Z,50.55
2023-09-27T14:40:50.978Z,50.59
2023-09-27T14:43:17.716Z,51.69
2023-09-27T14:45:44.409Z,55.13
2023-09-27T14:48:11.502Z,55.32
2023-09-27T14:50:38.274Z,58.91
2023-09-27T14:53:04.965Z,56.71
2023-09-27T14:55:31.613Z,53.79
2023-09-27T14:57:59.605Z,57.23
2023-09-27T15:00:26.695Z,59.01
2023-09-27T15:02:57.137Z,61.78
2023-09-27T15:05:24.235Z,62.85
2023-09-27T15:07:51.029Z,63.43
2023-09-27T15:10:17.788Z,61.61
2023-09-27T15:12:44.399Z,62.26
2023-09-27T15:15:12.703Z,64.36
2023-09-27T15:17:43.447Z,66.02
2023-09-27T15:20:12.432Z,66.22
2023-09-27T15:22:42.349Z,66.70
2023-09-27T15:25:10.614Z,67.70
2023-09-27T15:27:37.290Z,68.53
2023-09-27T15:30:04.324Z,70.29
2023-09-27T15:32:31.017Z,70.40
2023-09-27T15:34:58.001Z,72.33
2023-09-27T15:37:24.678Z,74.45
2023-09-27T15:39:51.238Z,74.32
2023-09-27T15:42:17.845Z,75.58
2023-09-27T15:44:44.364Z,76.27
2023-09-27T15:47:14.150Z,77.49
2023-09-27T15:49:40.765Z,78.59
2023-09-27T15:52:07.379Z,78.70
2023-09-27T15:54:34.512Z,79.40
2023-09-27T15:57:01.182Z,80.01
2023-09-27T15:59:28.170Z,79.85
2023-09-27T16:01:57.569Z,81.10
2023-09-27T16:04:24.750Z,80.88
2023-09-27T16:06:52.975Z,81.68
2023-09-27T16:09:19.626Z,81.79
2023-09-27T16:11:46.500Z,81.17
2023-09-27T16:14:13.229Z,82.81
2023-09-27T16:16:39.956Z,83.86
2023-09-27T16:19:07.127Z,84.22
2023-09-27T16:21:33.711Z,84.01
2023-09-27T16:24:01.428Z,83.83
2023-09-27T16:26:28.395Z,83.61
2023-09-27T16:28:54.975Z,84.36
2023-09-27T16:31:22.364Z,84.40
2023-09-27T16:33:49.225Z,85.43
2023-09-27T16:36:18.990Z,86.21
2023-09-27T16:38:45.679Z,86.54
2023-09-27T16:41:12.219Z,86.20
2023-09-27T16:43:40.799Z,86.84
2023-09-27T16:46:08.403Z,86.87
2023-09-27T16:48:36.009Z,86.52
2023-09-27T16:51:03.149Z,86.25
2023-09-27T16:53:30.077Z,86.25
2023-09-27T16:55:56.697Z,86.66
2023-09-27T16:58:26.700Z,87.26
2023-09-27T17:00:53.607Z,87.89
2023-09-27T17:03:20.760Z,88.44
2023-09-27T17:05:47.796Z,88.41
2023-09-27T17:08:14.524Z,88.76
2023-09-27T17:10:41.662Z,88.89
2023-09-27T17:13:09.346Z,89.03
2023-09-27T17:15:35.999Z,88.76
2023-09-27T17:18:02.579Z,89.00
2023-09-27T17:20:29.228Z,89.27
2023-09-27T17:22:56.055Z,89.59
2023-09-27T17:25:22.735Z,89.91
2023-09-27T17:27:49.390Z,89.98
2023-09-27T17:30:16.704Z,90.31
2023-09-27T17:32:44.204Z,90.45
2023-09-27T17:35:11.315Z,90.56
2023-09-27T17:37:38.205Z,90.94
2023-09-27T17:40:09.083Z,91.10
2023-09-27T17:42:36.701Z,91.24
2023-09-27T17:45:04.346Z,91.38
2023-09-27T17:47:31.096Z,91.58
2023-09-27T17:49:57.812Z,92.08
2023-09-27T17:52:24.464Z,92.07
2023-09-27T17:54:51.002Z,92.27
2023-09-27T17:57:18.476Z,92.23
2023-09-27T17:59:46.566Z,92.48
2023-09-27T18:02:13.238Z,92.40
2023-09-27T18:04:40.102Z,92.61
2023-09-27T18:07:06.747Z,92.58
2023-09-27T18:09:37.135Z,92.91
2023-09-27T18:12:05.616Z,92.89
2023-09-27T18:14:32.258Z,93.08
2023-09-27T18:16:59.171Z,93.09
2023-09-27T18:19:25.954Z,93.12
2023-09-27T18:21:52.708Z,93.19
2023-09-27T18:24:19.235Z,93.36
2023-09-27T18:26:45.821Z,93.34
2023-09-27T18:29:12.407Z,93.57
2023-09-27T18:31:40.321Z,93.43
2023-09-27T18:34:07.040Z,93.68
2023-09-27T18:36:34.249Z,93.68
2023-09-27T18:39:01.304Z,93.90
2023-09-27T18:41:28.579Z,93.82
2023-09-27T18:43:55.664Z,93.92
2023-09-27T18:46:22.794Z,94.07
2023-09-27T18:48:51.574Z,94.18
2023-09-27T18:51:22.353Z,94.22
2023-09-27T18:53:50.538Z,94.29
2023-09-27T18:56:17.225Z,94.61
2023-09-27T18:58:43.825Z,94.56
2023-09-27T19:01:10.393Z,94.59
2023-09-27T19:03:36.979Z,94.61
2023-09-27T19:06:03.680Z,94.70
2023-09-27T19:08:30.226Z,94.64
2023-09-27T19:10:56.826Z,94.87
2023-09-27T19:13:23.425Z,94.78
2023-09-27T19:15:50.098Z,95.05
2023-09-27T19:18:16.636Z,95.01
2023-09-27T19:20:43.208Z,94.96
2023-09-27T19:23:09.796Z,95.02
2023-09-27T19:25:36.431Z,95.16
2023-09-27T19:28:03.550Z,94.94
2023-09-27T19:30:32.596Z,94.93
2023-09-27T19:32:59.254Z,94.82
2023-09-27T19:35:28.020Z,94.97
2023-09-27T19:37:54.619Z,95.07
2023-09-27T19:40:23.005Z,95.41
2023-09-27T19:42:49.808Z,95.45
2023-09-27T19:45:16.741Z,95.39
2023-09-27T19:47:44.416Z,95.40
2023-09-27T19:50:12.548Z,95.16
2023-09-27T19:52:39.243Z,94.77
2023-09-27T19:55:08.591Z,94.55
2023-09-27T19:57:35.221Z,94.45
2023-09-27T20:00:04.564Z,94.49
2023-09-27T20:02:32.516Z,94.19
2023-09-27T20:04:59.066Z,94.41
2023-09-27T20:07:25.647Z,93.54
2023-09-27T20:09:52.483Z,92.84
2023-09-27T20:12:19.056Z,92.42
2023-09-27T20:14:45.763Z,92.12
2023-09-27T20:17:12.540Z,92.35
2023-09-27T20:19:39.178Z,92.17
2023-09-27T20:22:05.757Z,92.10
2023-09-27T20:24:32.409Z,92.28
2023-09-27T20:26:59.615Z,91.95
2023-09-27T20:29:26.180Z,92.16
2023-09-27T20:31:52.697Z,91.81
2023-09-27T20:34:19.409Z,91.63
2023-09-27T20:36:45.961Z,91.89
2023-09-27T20:39:12.576Z,91.80
2023-09-27T20:41:39.281Z,92.06
2023-09-27T20:44:06.727Z,92.60
2023-09-27T20:46:33.553Z,92.89
2023-09-27T20:49:01.087Z,92.87
2023-09-27T20:51:27.847Z,93.08
2023-09-27T20:53:55.309Z,93.34
2023-09-27T20:56:22.255Z,93.68
2023-09-27T20:58:49.376Z,93.88
2023-09-27T21:01:30.733Z,94.16
2023-09-27T21:04:00.132Z,94.59
2023-09-27T21:06:31.100Z,94.48
2023-09-27T21:08:58.947Z,94.69
2023-09-27T21:11:25.814Z,94.82
2023-09-27T21:13:58.342Z,95.05
2023-09-27T21:16:26.483Z,95.13
2023-09-27T21:18:54.098Z,95.39
2023-09-27T21:21:23.136Z,95.48
2023-09-27T21:23:50.060Z,95.51
2023-09-27T21:26:17.062Z,95.61
2023-09-27T21:28:44.507Z,95.67
2023-09-27T21:31:14.556Z,95.84
2023-09-27T21:33:44.421Z,95.85
2023-09-27T21:36:11.330Z,95.92
2023-09-27T21:38:38.094Z,95.95
2023-09-27T21:41:04.984Z,96.04
2023-09-27T21:43:33.749Z,96.18
2023-09-27T21:46:00.905Z,96.26
2023-09-27T21:48:27.849Z,96.23
2023-09-27T21:50:54.527Z,96.29
2023-09-27T21:53:21.121Z,96.57
2023-09-27T21:55:47.720Z,96.52
2023-09-27T21:58:14.319Z,96.80
2023-09-27T22:00:40.850Z,96.87
2023-09-27T22:03:09.292Z,96.91
2023-09-27T22:05:36.093Z,97.15
2023-09-27T22:08:02.903Z,97.05
2023-09-27T22:10:35.383Z,97.31
2023-09-27T22:13:22.360Z,97.26
2023-09-27T22:15:55.858Z,97.26
2023-09-27T22:18:23.764Z,97.26
2023-09-27T22:20:50.839Z,97.29
2023-09-27T22:23:32.548Z,97.45
2023-09-27T22:26:07.469Z,97.57
2023-09-27T22:28:35.871Z,97.55
2023-09-27T22:31:02.935Z,97.60
2023-09-27T22:33:34.386Z,97.61
2023-09-27T22:36:02.136Z,97.62
2023-09-27T22:38:32.617Z,97.87
2023-09-27T22:41:03.594Z,97.86
2023-09-27T22:43:32.018Z,97.84
2023-09-27T22:46:00.155Z,97.97
2023-09-27T22:48:28.357Z,98.19
2023-09-27T22:51:00.483Z,98.12
2023-09-27T22:53:27.941Z,98.10
2023-09-27T22:56:00.218Z,98.10
2023-09-27T22:58:29.701Z,98.20
2023-09-27T23:00:59.130Z,98.22
2023-09-27T23:03:31.075Z,98.18
2023-09-27T23:05:58.552Z,98.39
2023-09-27T23:08:28.660Z,98.30
2023-09-27T23:10:58.006Z,98.20
2023-09-27T23:13:31.819Z,98.44
2023-09-27T23:16:24.587Z,98.49
2023-09-27T23:18:51.734Z,98.47
2023-09-27T23:21:25.104Z,98.43
2023-09-27T23:23:57.703Z,98.40
2023-09-27T23:26:46.678Z,98.56
2023-09-27T23:29:29.242Z,98.61
2023-09-27T23:31:58.701Z,98.58
2023-09-27T23:34:30.087Z,98.65
2023-09-27T23:37:11.968Z,98.66
2023-09-27T23:39:48.398Z,98.67
2023-09-27T23:42:24.868Z,98.86
2023-09-27T23:45:12.609Z,98.89
2023-09-27T23:47:51.173Z,98.80
2023-09-27T23:50:18.422Z,98.98
2023-09-27T23:52:47.212Z,98.93
2023-09-27T23:55:15.484Z,98.94
2023-09-27T23:57:42.696Z,98.93
